Time;durP1;ratioP1;P1;durP2;ratioP2;P2;SDS_P1;SDS_P2;PMS_P1;PMS_P2;Temp;Humidity;BMP_temperature;BMP_pressure;BME280_temperature;BME280_humidity;BME280_pressure;Samples;Min_cycle;Max_cycle;Signal;HPM_P1;HPM_P2
2023/01/09 00:01:10;;;;;;;;;;;;;;;;;;4771132;27;20253;-71
2023/01/09 00:03:35;;;;;;;;;;;;;;;;;;4771776;27;20284;-71
2023/01/09 00:06:01;;;;;;;;;;;;;;;;;;4772951;27;20225;-70
2023/01/09 00:08:27;;;;;;;;;;;;;;;;;;4775081;27;20416;-72
2023/01/09 00:10:53;;;;;;;;;;;;;;;;;;4790496;27;20251;-71
2023/01/09 00:13:19;;;;;;;;;;;;;;;;;;4791025;27;20234;-70
2023/01/09 00:15:45;;;;;;;;;;;;;;;;;;4790673;27;20355;-70
2023/01/09 00:18:11;;;;;;;;;;;;;;;;;;4791727;27;20374;-71
2023/01/09 00:20:37;;;;;;;;;;;;;;;;;;4789053;27;20607;-71
2023/01/09 00:23:02;;;;;;;;;;;;;;;;;;4787840;27;20265;-70
2023/01/09 00:25:29;;;;;;;;;;;;;;;;;;4788043;27;20732;-71
2023/01/09 00:27:54;;;;;;;;;;;;;;;;;;4790634;27;20833;-71
2023/01/09 00:30:20;;;;;;;;;;;;;;;;;;4765887;27;20278;-72
2023/01/09 00:32:46;;;;;;;;;;;;;;;;;;4783004;27;20259;-71
2023/01/09 00:35:12;;;;;;;;;;;;;;;;;;4791829;27;20239;-71
2023/01/09 00:37:38;;;;;;;;;;;;;;;;;;4949680;22;20618;-71
2023/01/09 00:40:04;;;;;;;;;;;;;;;;;;4714828;28;20259;-71
2023/01/09 00:42:30;;;;;;;;;;;;;;;;;;4715706;28;20657;-72
2023/01/09 00:44:56;;;;;;;;;;;;;;;;;;4715275;28;20270;-72
2023/01/09 00:47:22;;;;;;;;;;;;;;;;;;4716049;28;20325;-72
2023/01/09 00:49:47;;;;;;;;;;;;;;;;;;4716592;28;20289;-71
2023/01/09 00:52:13;;;;;;;;;;;;;;;;;;4716290;28;20706;-72
2023/01/09 00:54:39;;;;;;;;;;;;;;;;;;4716745;28;20308;-71
2023/01/09 00:57:05;;;;;;;;;;;;;;;;;;4717322;28;20817;-71
2023/01/09 00:59:31;;;;;;;;;;;;;;;;;;4718119;28;20309;-72
2023/01/09 01:01:57;;;;;;;;;;;;;;;;;;4718424;28;20260;-72
2023/01/09 01:09:52;;;;;;;;;;;;;;;;;;4711020;28;20259;-72
2023/01/09 01:12:18;;;;;;;;;;;;;;;;;;4717384;28;20289;-72
2023/01/09 01:14:44;;;;;;;;;;;;;;;;;;4717442;28;20288;-72
2023/01/09 01:17:10;;;;;;;;;;;;;;;;;;4711393;28;20289;-72
2023/01/09 01:19:36;;;;;;;;;;;;;;;;;;4717546;28;20271;-72
2023/01/09 01:22:02;;;;;;;;;;;;;;;;;;4717433;28;20714;-72
2023/01/09 01:24:27;;;;;;;;;;;;;;;;;;4715889;28;20272;-71
2023/01/09 01:26:53;;;;;;;;;;;;;;;;;;4717254;28;20699;-70
2023/01/09 01:29:19;;;;;;;;;;;;;;;;;;4717015;28;20400;-71
2023/01/09 01:31:45;;;;;;;;;;;;;;;;;;4717295;28;20780;-72
2023/01/09 01:34:11;;;;;;;;;;;;;;;;;;4716391;28;20272;-72
2023/01/09 01:36:37;;;;;;;;;;;;;;;;;;4716623;28;20489;-72
2023/01/09 01:39:03;;;;;;;;;;;;;;;;;;4715088;28;20307;-72
2023/01/09 01:41:28;;;;;;;;;;;;;;;;;;4715894;28;20241;-72
2023/01/09 01:43:54;;;;;;;;;;;;;;;;;;4715611;28;20261;-72
2023/01/09 01:46:20;;;;;;;;;;;;;;;;;;4715664;28;20655;-72
2023/01/09 01:48:46;;;;;;;;;;;;;;;;;;4717017;28;20308;-72
2023/01/09 01:51:14;;;;;;;;;;;;;;;;;;4716070;28;20306;-73
2023/01/09 01:53:40;;;;;;;;;;;;;;;;;;4712531;28;21173;-72
2023/01/09 01:56:06;;;;;;;;;;;;;;;;;;4716678;28;20356;-72
2023/01/09 01:58:32;;;;;;;;;;;;;;;;;;4715789;28;20256;-72
2023/01/09 02:00:58;;;;;;;;;;;;;;;;;;4716027;28;20269;-71
2023/01/09 02:03:24;;;;;;;;;;;;;;;;;;4712457;28;20719;-72
2023/01/09 02:05:49;;;;;;;;;;;;;;;;;;4717116;28;20289;-71
2023/01/09 02:08:15;;;;;;;;;;;;;;;;;;4716489;28;20347;-72
2023/01/09 02:10:41;;;;;;;;;;;;;;;;;;4717829;28;20277;-71
2023/01/09 02:13:07;;;;;;;;;;;;;;;;;;4716823;28;20267;-71
2023/01/09 02:15:33;;;;;;;;;;;;;;;;;;4699558;28;20699;-72
2023/01/09 02:17:59;;;;;;;;;;;;;;;;;;4715980;28;20693;-72
2023/01/09 02:20:25;;;;;;;;;;;;;;;;;;4717594;28;20266;-71
2023/01/09 02:22:51;;;;;;;;;;;;;;;;;;4716741;28;20257;-72
2023/01/09 02:25:17;;;;;;;;;;;;;;;;;;4717265;28;20738;-72
2023/01/09 02:27:42;;;;;;;;;;;;;;;;;;4714231;28;20237;-72
2023/01/09 02:30:08;;;;;;;;;;;;;;;;;;4713417;28;20690;-72
2023/01/09 02:32:34;;;;;;;;;;;;;;;;;;4706509;28;20267;-72
2023/01/09 02:35:00;;;;;;;;;;;;;;;;;;4713825;28;20278;-72
2023/01/09 02:37:26;;;;;;;;;;;;;;;;;;4710941;28;20243;-72
2023/01/09 02:39:52;;;;;;;;;;;;;;;;;;4712745;28;20261;-72
2023/01/09 02:42:18;;;;;;;;;;;;;;;;;;4713696;28;20767;-72
2023/01/09 02:44:44;;;;;;;;;;;;;;;;;;4713369;28;20223;-72
2023/01/09 02:47:10;;;;;;;;;;;;;;;;;;4714226;28;20269;-72
2023/01/09 02:49:35;;;;;;;;;;;;;;;;;;4713800;28;20258;-72
2023/01/09 02:52:01;;;;;;;;;;;;;;;;;;4713774;28;20308;-73
2023/01/09 02:54:27;;;;;;;;;;;;;;;;;;4712414;28;20307;-73
2023/01/09 02:56:53;;;;;;;;;;;;;;;;;;4712102;28;21432;-73
2023/01/09 02:59:19;;;;;;;;;;;;;;;;;;4713611;28;20388;-72
2023/01/09 03:01:46;;;;;;;;;;;;;;;;;;4713928;28;20817;-73
2023/01/09 03:04:12;;;;;;;;;;;;;;;;;;4712107;28;20224;-72
2023/01/09 03:06:38;;;;;;;;;;;;;;;;;;4709882;28;20283;-72
2023/01/09 03:09:04;;;;;;;;;;;;;;;;;;4709558;28;20935;-72
2023/01/09 03:11:30;;;;;;;;;;;;;;;;;;4713816;28;20239;-72
2023/01/09 03:13:56;;;;;;;;;;;;;;;;;;4705514;28;20728;-72
2023/01/09 03:16:22;;;;;;;;;;;;;;;;;;4710672;28;20319;-72
2023/01/09 03:18:47;;;;;;;;;;;;;;;;;;4712091;28;20782;-73
2023/01/09 03:21:13;;;;;;;;;;;;;;;;;;4712602;28;20271;-72
2023/01/09 03:23:39;;;;;;;;;;;;;;;;;;4711069;28;20715;-72
2023/01/09 03:26:05;;;;;;;;;;;;;;;;;;4704586;28;20290;-73
2023/01/09 03:28:31;;;;;;;;;;;;;;;;;;4710890;28;20405;-73
2023/01/09 03:30:57;;;;;;;;;;;;;;;;;;4710752;28;20226;-73
2023/01/09 03:33:23;;;;;;;;;;;;;;;;;;4710626;28;20832;-72
2023/01/09 03:35:49;;;;;;;;;;;;;;;;;;4710364;28;20277;-71
2023/01/09 03:38:15;;;;;;;;;;;;;;;;;;4713490;28;20813;-72
2023/01/09 03:40:42;;;;;;;;;;;;;;;;;;4714134;28;20776;-73
2023/01/09 03:43:08;;;;;;;;;;;;;;;;;;4712328;28;20267;-72
2023/01/09 03:45:34;;;;;;;;;;;;;;;;;;4712691;28;20328;-73
2023/01/09 03:48:00;;;;;;;;;;;;;;;;;;4711178;28;20316;-72
2023/01/09 03:50:26;;;;;;;;;;;;;;;;;;4709587;28;20245;-73
2023/01/09 03:52:52;;;;;;;;;;;;;;;;;;4710527;28;20286;-72
2023/01/09 03:55:18;;;;;;;;;;;;;;;;;;4710435;28;20341;-72
2023/01/09 03:57:43;;;;;;;;;;;;;;;;;;4708017;28;20238;-72
2023/01/09 04:00:09;;;;;;;;;;;;;;;;;;4708762;28;20338;-72
2023/01/09 04:02:35;;;;;;;;;;;;;;;;;;4707641;28;20283;-72
2023/01/09 04:05:01;;;;;;;;;;;;;;;;;;4706257;28;20297;-72
2023/01/09 04:07:27;;;;;;;;;;;;;;;;;;4709249;28;20283;-72
2023/01/09 04:09:53;;;;;;;;;;;;;;;;;;4710850;28;20233;-71
2023/01/09 04:12:19;;;;;;;;;;;;;;;;;;4711041;28;20295;-73
2023/01/09 04:14:45;;;;;;;;;;;;;;;;;;4710488;28;20717;-72
2023/01/09 04:17:10;;;;;;;;;;;;;;;;;;4709745;28;20303;-73
2023/01/09 04:19:36;;;;;;;;;;;;;;;;;;4709203;28;21155;-72
2023/01/09 04:22:02;;;;;;;;;;;;;;;;;;4709740;28;20753;-72
2023/01/09 04:24:28;;;;;;;;;;;;;;;;;;4710298;28;20234;-72
2023/01/09 04:26:54;;;;;;;;;;;;;;;;;;4693188;28;20238;-72
2023/01/09 04:29:20;;;;;;;;;;;;;;;;;;4707006;28;20229;-72
2023/01/09 04:31:46;;;;;;;;;;;;;;;;;;4714635;28;20293;-72
2023/01/09 04:34:12;;;;;;;;;;;;;;;;;;4715771;28;20296;-72
2023/01/09 04:36:38;;;;;;;;;;;;;;;;;;4715001;28;20265;-72
2023/01/09 04:39:04;;;;;;;;;;;;;;;;;;4715198;28;20244;-72
2023/01/09 04:41:48;;;;;;;;;;;;;;;;;;4715160;28;20284;-72
2023/01/09 04:44:14;;;;;;;;;;;;;;;;;;4714560;28;20331;-72
2023/01/09 04:46:40;;;;;;;;;;;;;;;;;;4714103;28;21619;-72
2023/01/09 04:49:06;;;;;;;;;;;;;;;;;;4715385;28;20295;-72
2023/01/09 04:51:32;;;;;;;;;;;;;;;;;;4713410;28;20726;-72
2023/01/09 04:53:57;;;;;;;;;;;;;;;;;;4711573;28;20629;-71
2023/01/09 04:56:23;;;;;;;;;;;;;;;;;;4711109;28;20299;-73
2023/01/09 04:58:49;;;;;;;;;;;;;;;;;;4710916;28;20294;-72
2023/01/09 05:01:15;;;;;;;;;;;;;;;;;;4711302;28;20300;-72
2023/01/09 05:03:41;;;;;;;;;;;;;;;;;;4712095;28;20298;-73
2023/01/09 05:06:07;;;;;;;;;;;;;;;;;;4710655;28;20241;-72
2023/01/09 05:08:33;;;;;;;;;;;;;;;;;;4709474;28;20325;-73
2023/01/09 05:10:59;;;;;;;;;;;;;;;;;;4710816;28;20282;-71
2023/01/09 05:13:25;;;;;;;;;;;;;;;;;;4711604;28;20329;-73
2023/01/09 05:15:51;;;;;;;;;;;;;;;;;;4710415;28;20263;-73
2023/01/09 05:18:17;;;;;;;;;;;;;;;;;;4712172;28;20723;-73
2023/01/09 05:20:43;;;;;;;;;;;;;;;;;;4712842;28;20226;-73
2023/01/09 05:23:08;;;;;;;;;;;;;;;;;;4705223;28;20246;-73
2023/01/09 05:25:34;;;;;;;;;;;;;;;;;;4712523;28;20300;-72
2023/01/09 05:28:00;;;;;;;;;;;;;;;;;;4711450;28;20946;-73
2023/01/09 05:30:26;;;;;;;;;;;;;;;;;;4711021;28;20286;-73
2023/01/09 05:32:52;;;;;;;;;;;;;;;;;;4709878;28;20719;-72
2023/01/09 05:35:19;;;;;;;;;;;;;;;;;;4708784;28;20413;-73
2023/01/09 05:37:44;;;;;;;;;;;;;;;;;;4706398;28;20244;-73
2023/01/09 05:40:10;;;;;;;;;;;;;;;;;;4708170;28;20620;-73
2023/01/09 05:42:36;;;;;;;;;;;;;;;;;;4708649;28;20286;-73
2023/01/09 05:45:02;;;;;;;;;;;;;;;;;;4708425;28;20254;-73
2023/01/09 05:47:28;;;;;;;;;;;;;;;;;;4705718;28;20771;-73
2023/01/09 05:49:55;;;;;;;;;;;;;;;;;;4710468;28;20352;-73
2023/01/09 05:52:21;;;;;;;;;;;;;;;;;;4711963;28;20280;-72
2023/01/09 05:54:46;;;;;;;;;;;;;;;;;;4709260;28;20302;-73
2023/01/09 05:57:12;;;;;;;;;;;;;;;;;;4711940;28;20737;-73
2023/01/09 05:59:38;;;;;;;;;;;;;;;;;;4713129;28;20241;-73
2023/01/09 06:02:04;;;;;;;;;;;;;;;;;;4710835;28;20283;-73
2023/01/09 06:04:30;;;;;;;;;;;;;;;;;;4710965;28;20267;-72
2023/01/09 06:06:56;;;;;;;;;;;;;;;;;;4709949;28;20271;-73
2023/01/09 06:09:22;;;;;;;;;;;;;;;;;;4710889;28;20284;-73
2023/01/09 06:11:48;;;;;;;;;;;;;;;;;;4710492;28;20739;-73
2023/01/09 06:14:16;;;;;;;;;;;;;;;;;;4710222;28;20842;-73
2023/01/09 06:16:41;;;;;;;;;;;;;;;;;;4709085;28;20336;-73
2023/01/09 06:19:07;;;;;;;;;;;;;;;;;;4708991;28;20328;-73
2023/01/09 06:21:33;;;;;;;;;;;;;;;;;;4708244;28;20282;-73
2023/01/09 06:23:59;;;;;;;;;;;;;;;;;;4710242;28;20301;-73
2023/01/09 06:26:25;;;;;;;;;;;;;;;;;;4712427;28;20278;-74
2023/01/09 06:28:51;;;;;;;;;;;;;;;;;;4710964;28;20301;-73
2023/01/09 06:31:17;;;;;;;;;;;;;;;;;;4707806;28;20272;-73
2023/01/09 06:33:43;;;;;;;;;;;;;;;;;;4710270;28;20305;-72
2023/01/09 06:36:09;;;;;;;;;;;;;;;;;;4710377;28;20240;-74
2023/01/09 06:38:35;;;;;;;;;;;;;;;;;;4709865;28;20818;-72
2023/01/09 06:41:01;;;;;;;;;;;;;;;;;;4690980;28;20235;-72
2023/01/09 06:43:27;;;;;;;;;;;;;;;;;;4707631;28;20282;-72
2023/01/09 06:45:53;;;;;;;;;;;;;;;;;;4706603;28;20780;-72
2023/01/09 06:48:18;;;;;;;;;;;;;;;;;;4701547;28;20306;-73
2023/01/09 06:50:45;;;;;;;;;;;;;;;;;;4708081;28;20243;-73
2023/01/09 06:53:11;;;;;;;;;;;;;;;;;;4707596;28;20814;-72
2023/01/09 06:55:37;;;;;;;;;;;;;;;;;;4708021;28;20239;-72
2023/01/09 06:58:03;;;;;;;;;;;;;;;;;;4712789;28;20371;-72
2023/01/09 07:00:30;;;;;;;;;;;;;;;;;;4711181;28;20266;-72
2023/01/09 07:02:56;;;;;;;;;;;;;;;;;;4704344;28;20808;-72
2023/01/09 07:05:22;;;;;;;;;;;;;;;;;;4716032;28;20251;-62
2023/01/09 07:07:47;;;;;;;;;;;;;;;;;;4714377;28;20232;-67
2023/01/09 07:10:13;;;;;;;;;;;;;;;;;;4715215;28;20298;-71
2023/01/09 07:12:39;;;;;;;;;;;;;;;;;;4714485;28;20366;-71
2023/01/09 07:15:05;;;;;;;;;;;;;;;;;;4710258;28;20295;-71
2023/01/09 07:17:31;;;;;;;;;;;;;;;;;;4709922;28;21093;-71
2023/01/09 07:19:57;;;;;;;;;;;;;;;;;;4710131;28;20217;-69
2023/01/09 07:22:23;;;;;;;;;;;;;;;;;;4717728;28;20278;-70
2023/01/09 07:24:49;;;;;;;;;;;;;;;;;;4719140;28;20749;-71
2023/01/09 07:27:15;;;;;;;;;;;;;;;;;;4718225;28;20381;-72
2023/01/09 07:29:41;;;;;;;;;;;;;;;;;;4716131;28;20266;-71
2023/01/09 07:32:07;;;;;;;;;;;;;;;;;;4716039;28;20287;-72
2023/01/09 07:34:32;;;;;;;;;;;;;;;;;;4712627;28;20314;-72
2023/01/09 07:36:58;;;;;;;;;;;;;;;;;;4714197;28;20891;-71
2023/01/09 07:39:24;;;;;;;;;;;;;;;;;;4707235;28;20259;-71
2023/01/09 07:41:50;;;;;;;;;;;;;;;;;;4715721;28;20244;-72
2023/01/09 07:44:16;;;;;;;;;;;;;;;;;;4716530;28;20793;-73
2023/01/09 07:46:42;;;;;;;;;;;;;;;;;;4716626;28;20297;-71
2023/01/09 07:49:08;;;;;;;;;;;;;;;;;;4718423;28;20437;-71
2023/01/09 07:51:34;;;;;;;;;;;;;;;;;;4716731;28;20793;-69
2023/01/09 07:54:00;;;;;;;;;;;;;;;;;;4716316;28;20288;-72
2023/01/09 07:56:25;;;;;;;;;;;;;;;;;;4715887;28;20242;-71
2023/01/09 07:58:51;;;;;;;;;;;;;;;;;;4715945;28;20263;-70
2023/01/09 08:01:17;;;;;;;;;;;;;;;;;;4715095;28;20274;-71
2023/01/09 08:03:43;;;;;;;;;;;;;;;;;;4713969;28;20319;-71
2023/01/09 08:06:09;;;;;;;;;;;;;;;;;;4708382;28;20241;-70
2023/01/09 08:08:35;;;;;;;;;;;;;;;;;;4714299;28;20636;-71
2023/01/09 08:11:01;;;;;;;;;;;;;;;;;;4714930;28;20297;-71
2023/01/09 08:13:27;;;;;;;;;;;;;;;;;;4713491;28;20354;-71
2023/01/09 08:15:52;;;;;;;;;;;;;;;;;;4713620;28;20380;-71
2023/01/09 08:18:18;;;;;;;;;;;;;;;;;;4714519;28;20307;-71
2023/01/09 08:20:44;;;;;;;;;;;;;;;;;;4714912;28;20375;-71
2023/01/09 08:23:10;;;;;;;;;;;;;;;;;;4714184;28;20271;-70
2023/01/09 08:25:36;;;;;;;;;;;;;;;;;;4713811;28;20762;-71
2023/01/09 08:28:02;;;;;;;;;;;;;;;;;;4713886;28;20361;-71
2023/01/09 08:30:28;;;;;;;;;;;;;;;;;;4712548;28;20278;-72
2023/01/09 08:32:54;;;;;;;;;;;;;;;;;;4712699;28;20304;-70
2023/01/09 08:35:19;;;;;;;;;;;;;;;;;;4713766;28;20311;-70
2023/01/09 08:37:45;;;;;;;;;;;;;;;;;;4711960;28;20814;-71
2023/01/09 08:40:11;;;;;;;;;;;;;;;;;;4710906;28;20274;-71
2023/01/09 08:48:07;;;;;;;;;;;;;;;;;;4709957;28;20718;-70
2023/01/09 08:50:33;;;;;;;;;;;;;;;;;;4711405;28;20693;-70
2023/01/09 08:52:58;;;;;;;;;;;;;;;;;;4704830;28;20227;-71
2023/01/09 08:55:24;;;;;;;;;;;;;;;;;;4710366;28;20321;-71
2023/01/09 08:57:50;;;;;;;;;;;;;;;;;;4710425;28;20754;-70
2023/01/09 09:00:16;;;;;;;;;;;;;;;;;;4710955;28;20302;-71
2023/01/09 09:02:42;;;;;;;;;;;;;;;;;;4708352;28;20286;-71
2023/01/09 09:05:08;;;;;;;;;;;;;;;;;;4702838;28;20813;-70
2023/01/09 09:07:34;;;;;;;;;;;;;;;;;;4704062;28;20288;-70
2023/01/09 09:10:00;;;;;;;;;;;;;;;;;;4703544;28;20230;-69
2023/01/09 09:12:25;;;;;;;;;;;;;;;;;;4702915;28;20634;-70
2023/01/09 09:17:36;;;;;;;;;;;;;;;;;;4695447;28;20329;-71
2023/01/09 09:20:02;;;;;;;;;;;;;;;;;;4705275;28;20269;-71
2023/01/09 09:22:28;;;;;;;;;;;;;;;;;;4707285;28;20732;-71
2023/01/09 09:24:54;;;;;;;;;;;;;;;;;;4707737;28;20863;-72
2023/01/09 09:27:19;;;;;;;;;;;;;;;;;;4708502;28;20306;-70
2023/01/09 09:29:45;;;;;;;;;;;;;;;;;;4702655;28;20390;-70
2023/01/09 09:32:11;;;;;;;;;;;;;;;;;;4707609;28;20306;-71
2023/01/09 09:34:37;;;;;;;;;;;;;;;;;;4708993;28;20336;-70
2023/01/09 09:37:03;;;;;;;;;;;;;;;;;;4711933;28;20245;-71
2023/01/09 09:39:29;;;;;;;;;;;;;;;;;;4711405;28;20233;-70
2023/01/09 09:44:43;;;;;;;;;;;;;;;;;;4710836;28;20347;-70
2023/01/09 09:47:08;;;;;;;;;;;;;;;;;;4710317;28;20294;-71
2023/01/09 09:49:34;;;;;;;;;;;;;;;;;;4710014;28;20273;-71
2023/01/09 09:52:00;;;;;;;;;;;;;;;;;;4709832;28;20286;-70
2023/01/09 09:54:26;;;;;;;;;;;;;;;;;;4709438;28;20283;-70
2023/01/09 09:56:52;;;;;;;;;;;;;;;;;;4713514;28;20276;-71
2023/01/09 09:59:18;;;;;;;;;;;;;;;;;;4710657;28;20238;-70
2023/01/09 10:01:44;;;;;;;;;;;;;;;;;;4710402;28;20441;-70
2023/01/09 10:04:10;;;;;;;;;;;;;;;;;;4710057;28;20252;-70
2023/01/09 10:06:36;;;;;;;;;;;;;;;;;;4710366;28;20253;-70
2023/01/09 10:09:02;;;;;;;;;;;;;;;;;;4707237;28;20235;-71
2023/01/09 10:11:27;;;;;;;;;;;;;;;;;;4711932;28;20271;-70
2023/01/09 10:14:06;;;;;;;;;;;;;;;;;;4711988;28;20349;-69
2023/01/09 10:16:31;;;;;;;;;;;;;;;;;;4706591;28;20803;-70
2023/01/09 10:18:57;;;;;;;;;;;;;;;;;;4706675;28;20353;-69
2023/01/09 10:21:23;;;;;;;;;;;;;;;;;;4710941;28;20242;-70
2023/01/09 10:23:49;;;;;;;;;;;;;;;;;;4712695;28;20231;-70
2023/01/09 10:26:15;;;;;;;;;;;;;;;;;;4711933;28;20289;-70
2023/01/09 10:28:41;;;;;;;;;;;;;;;;;;4708644;28;20284;-69
2023/01/09 10:31:07;;;;;;;;;;;;;;;;;;4707596;28;20398;-70
2023/01/09 10:33:33;;;;;;;;;;;;;;;;;;4705693;28;20289;-70
2023/01/09 10:35:58;;;;;;;;;;;;;;;;;;4698402;28;20259;-70
2023/01/09 10:38:24;;;;;;;;;;;;;;;;;;4706698;28;20341;-69
2023/01/09 10:40:50;;;;;;;;;;;;;;;;;;4708063;28;20245;-69
2023/01/09 10:43:16;;;;;;;;;;;;;;;;;;4709554;28;20353;-69
2023/01/09 10:45:42;;;;;;;;;;;;;;;;;;4708484;28;21447;-71
2023/01/09 10:48:08;;;;;;;;;;;;;;;;;;4708491;28;20237;-69
2023/01/09 10:50:34;;;;;;;;;;;;;;;;;;4706406;28;20234;-69
2023/01/09 10:53:01;;;;;;;;;;;;;;;;;;4702021;28;20258;-70
2023/01/09 10:55:27;;;;;;;;;;;;;;;;;;4700325;28;20304;-69
2023/01/09 10:57:52;;;;;;;;;;;;;;;;;;4704692;28;20279;-70
2023/01/09 11:00:18;;;;;;;;;;;;;;;;;;4705016;28;20309;-69
2023/01/09 11:02:44;;;;;;;;;;;;;;;;;;4701549;28;20275;-69
2023/01/09 11:05:10;;;;;;;;;;;;;;;;;;4698847;28;20304;-70
2023/01/09 11:07:36;;;;;;;;;;;;;;;;;;4705098;28;20300;-71
2023/01/09 11:10:02;;;;;;;;;;;;;;;;;;4707657;28;20258;-71
2023/01/09 11:12:28;;;;;;;;;;;;;;;;;;4707294;28;20270;-71
2023/01/09 11:14:54;;;;;;;;;;;;;;;;;;4689602;28;20254;-72
2023/01/09 11:17:20;;;;;;;;;;;;;;;;;;4713477;28;20343;-70
2023/01/09 11:19:46;;;;;;;;;;;;;;;;;;4716052;28;20240;-71
2023/01/09 11:22:11;;;;;;;;;;;;;;;;;;4718654;28;20279;-69
2023/01/09 11:24:37;;;;;;;;;;;;;;;;;;4716178;28;20680;-71
2023/01/09 11:27:03;;;;;;;;;;;;;;;;;;4716145;28;20280;-71
2023/01/09 11:29:29;;;;;;;;;;;;;;;;;;4715215;28;20300;-72
2023/01/09 11:31:55;;;;;;;;;;;;;;;;;;4708474;28;20375;-71
2023/01/09 11:34:21;;;;;;;;;;;;;;;;;;4719753;28;20357;-72
2023/01/09 11:36:47;;;;;;;;;;;;;;;;;;4722732;28;20270;-71
2023/01/09 11:39:13;;;;;;;;;;;;;;;;;;4723910;28;20243;-72
2023/01/09 11:41:39;;;;;;;;;;;;;;;;;;4723378;28;20712;-71
2023/01/09 11:44:05;;;;;;;;;;;;;;;;;;4722154;28;20286;-71
2023/01/09 11:46:31;;;;;;;;;;;;;;;;;;4722492;28;20275;-69
2023/01/09 11:48:57;;;;;;;;;;;;;;;;;;4723406;28;20227;-70
2023/01/09 11:51:22;;;;;;;;;;;;;;;;;;4722269;28;20340;-71
2023/01/09 11:53:48;;;;;;;;;;;;;;;;;;4725614;28;20278;-71
2023/01/09 11:56:14;;;;;;;;;;;;;;;;;;4713424;28;20278;-72
2023/01/09 11:58:41;;;;;;;;;;;;;;;;;;4720943;28;20697;-71
2023/01/09 12:01:07;;;;;;;;;;;;;;;;;;4716043;28;20291;-71
2023/01/09 12:03:33;;;;;;;;;;;;;;;;;;4698276;28;20613;-71
2023/01/09 12:05:59;;;;;;;;;;;;;;;;;;4717044;28;20299;-72
2023/01/09 12:08:25;;;;;;;;;;;;;;;;;;4714855;28;20405;-70
2023/01/09 12:10:51;;;;;;;;;;;;;;;;;;4714516;28;20294;-71
2023/01/09 12:13:16;;;;;;;;;;;;;;;;;;4712873;28;20283;-71
2023/01/09 12:15:42;;;;;;;;;;;;;;;;;;4715676;28;20638;-71
2023/01/09 12:18:08;;;;;;;;;;;;;;;;;;4717751;28;20294;-71
2023/01/09 12:20:34;;;;;;;;;;;;;;;;;;4715275;28;20866;-70
2023/01/09 12:23:00;;;;;;;;;;;;;;;;;;4714290;28;20659;-71
2023/01/09 12:25:28;;;;;;;;;;;;;;;;;;4713085;28;20230;-72
2023/01/09 12:27:53;;;;;;;;;;;;;;;;;;4709713;28;20692;-71
2023/01/09 12:30:19;;;;;;;;;;;;;;;;;;4710159;28;20369;-71
2023/01/09 12:32:45;;;;;;;;;;;;;;;;;;4711150;28;20240;-72
2023/01/09 12:35:11;;;;;;;;;;;;;;;;;;4711937;28;20300;-71
2023/01/09 12:37:37;;;;;;;;;;;;;;;;;;4706905;28;20737;-72
2023/01/09 12:40:03;;;;;;;;;;;;;;;;;;4706625;28;20336;-72
2023/01/09 12:42:29;;;;;;;;;;;;;;;;;;4710545;28;20786;-71
2023/01/09 12:44:55;;;;;;;;;;;;;;;;;;4708050;28;20237;-72
2023/01/09 12:47:21;;;;;;;;;;;;;;;;;;4705014;28;20322;-72
2023/01/09 12:49:47;;;;;;;;;;;;;;;;;;4702159;28;20296;-71
2023/01/09 12:52:13;;;;;;;;;;;;;;;;;;4699835;28;20295;-72
2023/01/09 12:54:39;;;;;;;;;;;;;;;;;;4709233;28;20284;-70
2023/01/09 12:57:05;;;;;;;;;;;;;;;;;;4707353;28;20390;-71
2023/01/09 12:59:31;;;;;;;;;;;;;;;;;;4710737;28;20243;-71
2023/01/09 13:01:57;;;;;;;;;;;;;;;;;;4710203;28;20301;-73
2023/01/09 13:04:23;;;;;;;;;;;;;;;;;;4707999;28;20268;-72
2023/01/09 13:06:49;;;;;;;;;;;;;;;;;;4709235;28;20281;-71
2023/01/09 13:09:15;;;;;;;;;;;;;;;;;;4709589;28;20656;-70
2023/01/09 13:11:41;;;;;;;;;;;;;;;;;;4702555;28;20263;-73
2023/01/09 13:14:06;;;;;;;;;;;;;;;;;;4703377;28;20259;-74
2023/01/09 13:16:32;;;;;;;;;;;;;;;;;;4705900;28;20699;-73
2023/01/09 13:18:58;;;;;;;;;;;;;;;;;;4707676;28;20301;-74
2023/01/09 13:21:25;;;;;;;;;;;;;;;;;;4709334;28;20679;-73
2023/01/09 13:23:51;;;;;;;;;;;;;;;;;;4711650;28;20308;-74
2023/01/09 13:26:17;;;;;;;;;;;;;;;;;;4710758;28;20339;-72
2023/01/09 13:28:45;;;;;;;;;;;;;;;;;;4709529;28;20317;-73
2023/01/09 13:31:11;;;;;;;;;;;;;;;;;;4711042;28;20345;-71
2023/01/09 13:33:37;;;;;;;;;;;;;;;;;;4710342;28;20366;-71
2023/01/09 13:36:03;;;;;;;;;;;;;;;;;;4709618;28;21119;-71
2023/01/09 13:38:30;;;;;;;;;;;;;;;;;;4711194;28;20299;-70
2023/01/09 13:42:34;;;;;;;;;;;;;;;;;;4709386;28;20266;-70
2023/01/09 13:43:41;;;;;;;;;;;;;;;;;;4710176;28;21002;-70
2023/01/09 13:46:07;;;;;;;;;;;;;;;;;;4710374;28;20274;-70
2023/01/09 13:48:33;;;;;;;;;;;;;;;;;;4711152;28;20310;-71
2023/01/09 13:51:00;;;;;;;;;;;;;;;;;;4710661;28;20778;-71
2023/01/09 13:53:26;;;;;;;;;;;;;;;;;;4709606;28;20277;-70
2023/01/09 13:55:51;;;;;;;;;;;;;;;;;;4709215;28;20343;-69
2023/01/09 13:58:17;;;;;;;;;;;;;;;;;;4706437;28;20659;-70
2023/01/09 14:00:43;;;;;;;;;;;;;;;;;;4707652;28;20304;-70
2023/01/09 14:03:09;;;;;;;;;;;;;;;;;;4706218;28;20333;-70
2023/01/09 14:05:35;;;;;;;;;;;;;;;;;;4706350;28;20249;-71
2023/01/09 14:08:01;;;;;;;;;;;;;;;;;;4706115;28;20285;-70
2023/01/09 14:10:27;;;;;;;;;;;;;;;;;;4706439;28;20339;-70
2023/01/09 14:12:53;;;;;;;;;;;;;;;;;;4706311;28;20294;-70
2023/01/09 14:15:19;;;;;;;;;;;;;;;;;;4707038;28;20710;-71
2023/01/09 14:17:45;;;;;;;;;;;;;;;;;;4703506;28;20338;-70
2023/01/09 14:20:10;;;;;;;;;;;;;;;;;;4698517;28;20293;-71
2023/01/09 14:22:36;;;;;;;;;;;;;;;;;;4708707;28;20241;-69
2023/01/09 14:25:02;;;;;;;;;;;;;;;;;;4709156;28;20249;-70
2023/01/09 14:27:28;;;;;;;;;;;;;;;;;;4707108;28;20239;-70
2023/01/09 14:29:54;;;;;;;;;;;;;;;;;;4707630;28;20723;-70
2023/01/09 14:32:20;;;;;;;;;;;;;;;;;;4701140;28;20304;-70
2023/01/09 14:34:46;;;;;;;;;;;;;;;;;;4707218;28;21192;-71
2023/01/09 14:37:12;;;;;;;;;;;;;;;;;;4705304;28;20266;-70
2023/01/09 14:39:38;;;;;;;;;;;;;;;;;;4701019;28;20236;-69
2023/01/09 14:42:11;;;;;;;;;;;;;;;;;;4696416;28;20765;-70
2023/01/09 14:44:37;;;;;;;;;;;;;;;;;;4708647;28;20805;-70
2023/01/09 14:47:02;;;;;;;;;;;;;;;;;;4701374;28;20289;-69
2023/01/09 14:49:28;;;;;;;;;;;;;;;;;;4698090;28;20242;-69
2023/01/09 14:51:54;;;;;;;;;;;;;;;;;;4705930;28;20839;-68
2023/01/09 14:54:20;;;;;;;;;;;;;;;;;;4706667;28;20255;-69
2023/01/09 14:56:46;;;;;;;;;;;;;;;;;;4707231;28;20239;-70
2023/01/09 14:59:12;;;;;;;;;;;;;;;;;;4708223;28;20274;-70
2023/01/09 15:01:38;;;;;;;;;;;;;;;;;;4707888;28;20249;-70
2023/01/09 15:04:04;;;;;;;;;;;;;;;;;;4707839;28;20279;-70
2023/01/09 15:06:30;;;;;;;;;;;;;;;;;;4706205;28;20286;-70
2023/01/09 15:08:56;;;;;;;;;;;;;;;;;;4706999;28;20277;-70
2023/01/09 15:11:22;;;;;;;;;;;;;;;;;;4709528;28;20694;-70
2023/01/09 15:13:48;;;;;;;;;;;;;;;;;;4703143;28;20303;-69
2023/01/09 15:16:13;;;;;;;;;;;;;;;;;;4705413;28;20733;-70
2023/01/09 15:18:39;;;;;;;;;;;;;;;;;;4709201;28;20295;-70
2023/01/09 15:21:05;;;;;;;;;;;;;;;;;;4710461;28;20305;-70
2023/01/09 15:23:31;;;;;;;;;;;;;;;;;;4709402;28;20233;-69
2023/01/09 15:25:57;;;;;;;;;;;;;;;;;;4707972;28;20284;-69
2023/01/09 15:28:24;;;;;;;;;;;;;;;;;;4710582;28;20262;-68
2023/01/09 15:30:49;;;;;;;;;;;;;;;;;;4710223;28;20290;-69
2023/01/09 15:33:15;;;;;;;;;;;;;;;;;;4708737;28;20284;-68
2023/01/09 15:35:41;;;;;;;;;;;;;;;;;;4712585;28;20247;-70
2023/01/09 15:38:07;;;;;;;;;;;;;;;;;;4709831;28;20392;-70
2023/01/09 15:40:33;;;;;;;;;;;;;;;;;;4708566;28;20349;-70
2023/01/09 15:42:59;;;;;;;;;;;;;;;;;;4705824;28;20274;-70
2023/01/09 15:45:25;;;;;;;;;;;;;;;;;;4707722;28;20236;-69
2023/01/09 15:47:51;;;;;;;;;;;;;;;;;;4708251;28;20287;-68
2023/01/09 15:50:17;;;;;;;;;;;;;;;;;;4710811;28;20703;-70
2023/01/09 15:52:43;;;;;;;;;;;;;;;;;;4709080;28;20582;-69
2023/01/09 15:55:09;;;;;;;;;;;;;;;;;;4708649;28;20300;-69
2023/01/09 15:57:35;;;;;;;;;;;;;;;;;;4709388;28;20285;-69
2023/01/09 16:00:01;;;;;;;;;;;;;;;;;;4708613;28;20277;-70
2023/01/09 16:05:12;;;;;;;;;;;;;;;;;;4708402;28;20263;-68
2023/01/09 16:07:38;;;;;;;;;;;;;;;;;;4704147;28;20711;-69
2023/01/09 16:10:04;;;;;;;;;;;;;;;;;;4686170;28;20309;-68
2023/01/09 16:12:30;;;;;;;;;;;;;;;;;;4713907;28;20270;-70
2023/01/09 16:14:56;;;;;;;;;;;;;;;;;;4715161;28;21054;-68
2023/01/09 16:17:25;;;;;;;;;;;;;;;;;;4714970;28;20285;-69
2023/01/09 16:19:51;;;;;;;;;;;;;;;;;;4715901;28;20342;-69
2023/01/09 16:22:17;;;;;;;;;;;;;;;;;;4712422;28;20268;-69
2023/01/09 16:24:43;;;;;;;;;;;;;;;;;;4703527;28;20333;-70
2023/01/09 16:27:09;;;;;;;;;;;;;;;;;;4705715;28;20288;-69
2023/01/09 16:29:35;;;;;;;;;;;;;;;;;;4703577;28;20304;-69
2023/01/09 16:32:01;;;;;;;;;;;;;;;;;;4712487;28;20356;-69
2023/01/09 16:34:26;;;;;;;;;;;;;;;;;;4712336;28;20409;-70
2023/01/09 16:36:53;;;;;;;;;;;;;;;;;;4713970;28;20268;-71
2023/01/09 16:39:19;;;;;;;;;;;;;;;;;;4717006;28;20699;-70
2023/01/09 16:44:30;;;;;;;;;;;;;;;;;;4720967;28;20336;-71
2023/01/09 16:46:56;;;;;;;;;;;;;;;;;;4717704;28;20676;-70
2023/01/09 16:49:22;;;;;;;;;;;;;;;;;;4714055;28;20706;-69
2023/01/09 16:51:48;;;;;;;;;;;;;;;;;;4718314;28;20725;-70
2023/01/09 16:54:14;;;;;;;;;;;;;;;;;;4708991;28;20374;-70
2023/01/09 16:56:40;;;;;;;;;;;;;;;;;;4710534;28;21101;-71
2023/01/09 16:59:05;;;;;;;;;;;;;;;;;;4717786;28;20281;-70